PWSweather.com
Personal Weather Stations
Station Observations
WATERF01
WaterfordIE

WaterfordIE

Lat: 52.2412507, Lon: -7.1414691

Elevation: 65

Station Type: Davis Vantage Vue

Latest ConditionsUpdated 6:30:04 AM GMT Friday, May 24, 2019
Currently Today's Max Today's Min Today's Average
Temperature 56.2°F13.4°C 56.8°F13.8°C 53.8°F12.1°C 55.4°F13.0°C
Dew Point 51.5°F10.8°C 53.0°F11.7°C 49.9°F9.9°C 51.4°F10.8°C
Winds Calm Calm 4.6 mph -7.4 kmh - - 2.9 mph 4.7 kmh
Wind Gusts -- 9.2 mph14.8 kmh - -
Humidity 84% 87% 84% 86%
Pressure 30.11 in1019.6 mb 30.11 in1019.6 mb 30.06 in1017.9 mb -
Hour Temp Dew Point Humidity Winds Wind Gusts Pressure Precip Precip Rate Daily Precip Total
06:30 AM 56.2°F13.4°C 51.5°F10.8°C 84% Calm Calm -- 30.11 in1019.6 mb - 0.00 in0.0 mm 0.00 in0.0 mm
06:20 AM 55.9°F13.3°C 51.1°F10.6°C 84% 3.5 mph W5.6 kmh W 5.8 mph9.3 kmh 30.11 in1019.6 mb - 0.00 in0.0 mm 0.00 in0.0 mm
06:10 AM 55.8°F13.2°C 51.3°F10.7°C 85% 2.3 mph WNW3.7 kmh WNW 5.8 mph9.3 kmh 30.11 in1019.6 mb - 0.00 in0.0 mm 0.00 in0.0 mm
06:00 AM 55.4°F13.0°C 51.0°F10.6°C 85% 2.3 mph WNW3.7 kmh WNW 2.3 mph3.7 kmh 30.10 in1019.3 mb - 0.00 in0.0 mm 0.00 in0.0 mm
05:50 AM 55.2°F12.9°C 50.8°F10.4°C 85% 2.3 mph NW3.7 kmh NW 5.8 mph9.3 kmh 30.10 in1019.3 mb - 0.00 in0.0 mm 0.00 in0.0 mm
05:40 AM 54.7°F12.6°C 50.6°F10.3°C 86% 2.3 mph NW3.7 kmh NW 5.8 mph9.3 kmh 30.10 in1019.3 mb - 0.00 in0.0 mm 0.00 in0.0 mm
05:30 AM 54.4°F12.4°C 50.3°F10.2°C 86% Calm Calm 1.2 mph1.9 kmh 30.10 in1019.3 mb - 0.00 in0.0 mm 0.00 in0.0 mm
05:20 AM 54.1°F12.3°C 50.0°F10.0°C 86% 2.3 mph NW3.7 kmh NW 4.6 mph7.4 kmh 30.10 in1019.3 mb - 0.00 in0.0 mm 0.00 in0.0 mm
05:10 AM 53.9°F12.2°C 50.1°F10.1°C 87% 3.5 mph NW5.6 kmh NW 5.8 mph9.3 kmh 30.10 in1019.3 mb - 0.00 in0.0 mm 0.00 in0.0 mm
05:00 AM 53.8°F12.1°C 50.0°F10.0°C 87% 2.3 mph WNW3.7 kmh WNW 4.6 mph7.4 kmh 30.09 in1019.0 mb - 0.00 in0.0 mm 0.00 in0.0 mm
04:50 AM 54.0°F12.2°C 49.9°F9.9°C 86% 2.3 mph WNW3.7 kmh WNW 5.8 mph9.3 kmh 30.09 in1019.0 mb - 0.00 in0.0 mm 0.00 in0.0 mm
04:40 AM 54.2°F12.3°C 50.1°F10.1°C 86% 2.3 mph NW3.7 kmh NW 2.3 mph3.7 kmh 30.09 in1019.0 mb - 0.00 in0.0 mm 0.00 in0.0 mm
04:30 AM 54.4°F12.4°C 50.3°F10.2°C 86% 3.5 mph NW5.6 kmh NW 5.8 mph9.3 kmh 30.09 in1019.0 mb - 0.00 in0.0 mm 0.00 in0.0 mm
04:20 AM 54.4°F12.4°C 50.3°F10.2°C 86% 4.6 mph NW7.4 kmh NW 6.9 mph11.1 kmh 30.09 in1019.0 mb - 0.00 in0.0 mm 0.00 in0.0 mm
04:10 AM 54.5°F12.5°C 50.4°F10.2°C 86% 4.6 mph NW7.4 kmh NW 6.9 mph11.1 kmh 30.08 in1018.6 mb - 0.00 in0.0 mm 0.00 in0.0 mm
04:00 AM 54.6°F12.6°C 50.5°F10.3°C 86% 2.3 mph NW3.7 kmh NW 5.8 mph9.3 kmh 30.08 in1018.6 mb - 0.00 in0.0 mm 0.00 in0.0 mm
03:50 AM 54.8°F12.7°C 50.7°F10.4°C 86% 2.3 mph NW3.7 kmh NW 4.6 mph7.4 kmh 30.07 in1018.3 mb - 0.00 in0.0 mm 0.00 in0.0 mm
03:40 AM 55.0°F12.8°C 50.9°F10.5°C 86% 3.5 mph WNW5.6 kmh WNW 5.8 mph9.3 kmh 30.08 in1018.6 mb - 0.00 in0.0 mm 0.00 in0.0 mm
03:30 AM 55.1°F12.8°C 51.0°F10.6°C 86% 4.6 mph NW7.4 kmh NW 6.9 mph11.1 kmh 30.08 in1018.6 mb - 0.00 in0.0 mm 0.00 in0.0 mm
03:20 AM 55.1°F12.8°C 51.0°F10.6°C 86% 4.6 mph NW7.4 kmh NW 8.1 mph13.0 kmh 30.08 in1018.6 mb - 0.00 in0.0 mm 0.00 in0.0 mm
03:10 AM 55.2°F12.9°C 51.1°F10.6°C 86% 4.6 mph NW7.4 kmh NW 6.9 mph11.1 kmh 30.09 in1019.0 mb - 0.00 in0.0 mm 0.00 in0.0 mm
03:00 AM 55.3°F12.9°C 51.2°F10.7°C 86% 4.6 mph NW7.4 kmh NW 9.2 mph14.8 kmh 30.09 in1019.0 mb - 0.00 in0.0 mm 0.00 in0.0 mm
02:50 AM 55.5°F13.1°C 51.4°F10.8°C 86% 4.6 mph NW7.4 kmh NW 8.1 mph13.0 kmh 30.08 in1018.6 mb - 0.00 in0.0 mm 0.00 in0.0 mm
02:40 AM 55.7°F13.2°C 51.9°F11.1°C 87% 4.6 mph NW7.4 kmh NW 6.9 mph11.1 kmh 30.09 in1019.0 mb - 0.00 in0.0 mm 0.00 in0.0 mm
02:30 AM 55.7°F13.2°C 51.9°F11.1°C 87% 2.3 mph WNW3.7 kmh WNW 4.6 mph7.4 kmh 30.09 in1019.0 mb - 0.00 in0.0 mm 0.00 in0.0 mm
02:20 AM 55.8°F13.2°C 52.0°F11.1°C 87% 3.5 mph NW5.6 kmh NW 4.6 mph7.4 kmh 30.09 in1019.0 mb - 0.00 in0.0 mm 0.00 in0.0 mm
02:10 AM 55.9°F13.3°C 52.1°F11.2°C 87% 2.3 mph NW3.7 kmh NW 5.8 mph9.3 kmh 30.09 in1019.0 mb - 0.00 in0.0 mm 0.00 in0.0 mm
02:00 AM 56.1°F13.4°C 52.3°F11.3°C 87% 3.5 mph NW5.6 kmh NW 6.9 mph11.1 kmh 30.08 in1018.6 mb - 0.00 in0.0 mm 0.00 in0.0 mm
01:50 AM 56.1°F13.4°C 52.3°F11.3°C 87% 3.5 mph NW5.6 kmh NW 5.8 mph9.3 kmh 30.09 in1019.0 mb - 0.00 in0.0 mm 0.00 in0.0 mm
01:40 AM 56.1°F13.4°C 52.3°F11.3°C 87% 3.5 mph NW5.6 kmh NW 4.6 mph7.4 kmh 30.08 in1018.6 mb - 0.00 in0.0 mm 0.00 in0.0 mm
01:30 AM 56.0°F13.3°C 52.2°F11.2°C 87% 4.6 mph NW7.4 kmh NW 5.8 mph9.3 kmh 30.08 in1018.6 mb - 0.00 in0.0 mm 0.00 in0.0 mm
01:20 AM 56.0°F13.3°C 52.2°F11.2°C 87% 1.2 mph WNW1.9 kmh WNW 2.3 mph3.7 kmh 30.08 in1018.6 mb - 0.00 in0.0 mm 0.00 in0.0 mm
01:10 AM 56.1°F13.4°C 52.3°F11.3°C 87% 1.2 mph WNW1.9 kmh WNW 5.8 mph9.3 kmh 30.08 in1018.6 mb - 0.00 in0.0 mm 0.00 in0.0 mm
01:00 AM 56.2°F13.4°C 52.4°F11.3°C 87% Calm Calm 2.3 mph3.7 kmh 30.07 in1018.3 mb - 0.00 in0.0 mm 0.00 in0.0 mm
12:50 AM 56.4°F13.6°C 52.6°F11.4°C 87% 2.3 mph NW3.7 kmh NW 5.8 mph9.3 kmh 30.07 in1018.3 mb - 0.00 in0.0 mm 0.00 in0.0 mm
12:40 AM 56.6°F13.7°C 52.7°F11.5°C 87% 1.2 mph NW1.9 kmh NW 5.8 mph9.3 kmh 30.06 in1017.9 mb - 0.00 in0.0 mm 0.00 in0.0 mm
12:30 AM 56.7°F13.7°C 52.9°F11.6°C 87% 4.6 mph NW7.4 kmh NW 6.9 mph11.1 kmh 30.06 in1017.9 mb - 0.00 in0.0 mm 0.00 in0.0 mm
12:20 AM 56.8°F13.8°C 53.0°F11.7°C 87% 4.6 mph NW7.4 kmh NW 5.8 mph9.3 kmh 30.07 in1018.3 mb - 0.00 in0.0 mm 0.00 in0.0 mm
12:10 AM 56.8°F13.8°C 53.0°F11.7°C 87% Calm Calm 2.3 mph3.7 kmh 30.07 in1018.3 mb - 0.00 in0.0 mm 0.00 in0.0 mm
12:00 AM 56.8°F13.8°C 53.0°F11.7°C 87% 2.3 mph NW3.7 kmh NW 5.8 mph9.3 kmh 30.07 in1018.3 mb - 0.00 in0.0 mm 0.00 in0.0 mm